Data for 08/01/2009

Time Sea-Level Adjusted Pressure Absolute Pressure Temperature Relative Humidity Dew Point   
(mb) (inHg) (mb) (inHg) (C) (F) (%) (C) (F)
00:05 1023 30.21 852 25.16 12.1 53.8 72 7.2 45
00:10 1023 30.21 852 25.16 12 53.5 72 7.2 44.9
00:15 1023 30.21 852 25.16 11.9 53.4 72 7.1 44.7
00:20 1023 30.21 852 25.16 12 53.6 71 7 44.6
00:25 1023 30.21 852 25.16 12.2 53.9 71 7 44.6
00:30 1023 30.21 852 25.16 12.3 54.1 70 7 44.5
00:35 1023 30.21 852 25.16 12.4 54.3 70 7.1 44.7
00:40 1023 30.21 852 25.16 12.2 54 71 7.2 44.9
00:45 1023 30.21 852 25.16 12 53.6 71 7 44.5
00:50 1023 30.21 852 25.16 12.1 53.7 70 6.8 44.3
00:55 1023 30.21 852 25.16 12.1 53.8 70 6.9 44.4
01:00 1023 30.21 852 25.16 12.2 54 69 6.8 44.2
01:05 1023 30.21 852 25.16 12.3 54.2 69 6.9 44.4
01:10 1023 30.21 852 25.16 12.1 53.9 70 6.9 44.4
01:15 1023 30.21 852 25.16 12.1 53.7 70 6.9 44.3
01:20 1023 30.21 852 25.16 12 53.6 70 6.8 44.3
01:25 1023 30.21 852 25.16 11.9 53.5 70 6.7 44.1
01:30 1023 30.21 852 25.16 11.9 53.4 70 6.7 44.1
01:35 1023 30.21 852 25.16 11.9 53.4 70 6.7 44
01:40 1023 30.21 852 25.16 11.9 53.5 70 6.6 43.9
01:45 1023 30.21 852 25.16 11.9 53.4 70 6.7 44
01:50 1023 30.21 852 25.16 11.9 53.5 70 6.6 43.8
01:55 1023 30.21 852 25.16 12 53.5 69 6.6 43.8
02:00 1023 30.21 852 25.16 12 53.7 69 6.6 43.8
02:05 1023 30.21 852 25.16 12 53.7 69 6.5 43.8
02:10 1023 30.21 852 25.16 11.9 53.4 70 6.7 44
02:15 1023 30.21 852 25.16 11.8 53.2 69 6.4 43.5
02:20 1023 30.21 852 25.16 12 53.7 68 6.5 43.6
02:25 1023 30.21 852 25.16 12.1 53.8 68 6.4 43.5
02:30 1023 30.21 852 25.16 12.1 53.8 69 6.7 44
02:35 1023 30.21 852 25.16 11.9 53.4 69 6.4 43.5
02:40 1023 30.21 852 25.16 12.2 53.9 66 6.1 43
02:45 1023 30.21 852 25.16 12.7 54.8 65 6.3 43.3
02:50 1023 30.21 852 25.16 12.8 55 65 6.4 43.5
02:55 1023 30.21 852 25.16 12.6 54.7 66 6.5 43.7
03:00 1023 30.21 852 25.16 12.2 53.9 69 6.8 44.2
03:05 1023 30.21 852 25.16 11.6 52.9 71 6.6 43.8
03:10 1023 30.21 852 25.16 11.4 52.4 71 6.3 43.4
03:15 1023 30.21 852 25.16 11.5 52.6 71 6.4 43.5
03:20 1023 30.21 852 25.16 11.5 52.7 72 6.6 43.9
03:25 1023 30.21 852 25.16 11.4 52.4 71 6.4 43.5
03:30 1023 30.21 852 25.16 11.3 52.3 72 6.4 43.5
03:35 1023 30.21 852 25.16 10.9 51.6 74 6.4 43.5
03:40 1023 30.21 852 25.16 10.7 51.2 73 6.2 43.1
03:45 1023 30.21 852 25.16 10.6 51 74 6.1 43
03:50 1023 30.21 852 25.16 10.5 50.9 73 5.9 42.7
03:55 1023 30.21 852 25.16 10.6 51.1 73 6 42.9
04:00 1023 30.21 852 25.16 10.5 50.9 73 6 42.8
04:05 1023 30.21 852 25.16 10.7 51.2 73 6 42.8
04:10 1023 30.21 852 25.16 10.7 51.3 73 6.1 42.9
04:15 1023 30.21 852 25.16 10.9 51.7 71 5.9 42.7
04:20 1023 30.21 852 25.16 11 51.8 71 6 42.9
04:25 1023 30.21 852 25.16 11.1 52 70 5.8 42.4
04:30 1023 30.21 852 25.16 11.3 52.4 70 6.1 42.9
04:35 1023 30.21 852 25.16 11.1 51.9 71 6.1 42.9
04:40 1023 30.21 852 25.16 10.9 51.7 71 6 42.7
04:45 1023 30.21 852 25.16 10.8 51.5 73 6.2 43.1
04:50 1023 30.21 852 25.16 10.5 50.8 73 5.9 42.6
04:55 1023 30.21 852 25.16 10.6 51 73 5.9 42.7
05:00 1023 30.21 852 25.16 10.8 51.5 71 5.8 42.5
05:05 1023 30.21 852 25.16 11.3 52.3 69 5.9 42.6
05:10 1023 30.21 852 25.16 11.4 52.4 70 6 42.9
05:15 1023 30.21 852 25.16 11.3 52.3 69 5.9 42.7
05:20 1023 30.21 852 25.16 11.3 52.4 69 6 42.8
05:25 1023 30.21 852 25.16 11.3 52.3 69 6 42.7
05:30 1023 30.21 852 25.16 11.3 52.3 70 6.1 42.9
05:35 1022 30.18 852 25.16 11.1 51.9 71 6.1 42.9
05:40 1022 30.18 852 25.16 11 51.8 72 6.1 43
05:45 1022 30.18 852 25.16 10.7 51.3 73 6.1 43
05:50 1023 30.21 852 25.16 10.7 51.2 72 5.9 42.7
05:55 1023 30.21 852 25.16 10.8 51.5 72 5.9 42.6
06:00 1023 30.21 852 25.16 11 51.8 71 6 42.8
06:05 1023 30.21 852 25.16 11 51.8 71 6 42.7
06:10 1023 30.21 852 25.16 11 51.8 71 6.1 43
06:15 1023 30.21 852 25.16 11 51.8 71 6 42.8
06:20 1023 30.21 852 25.16 11.2 52.1 69 5.8 42.5
06:25 1023 30.21 852 25.16 11.2 52.2 71 6.2 43.1
06:30 1023 30.21 852 25.16 10.8 51.5 72 6.1 43
06:35 1023 30.21 852 25.16 10.7 51.3 73 6.1 43
06:40 1023 30.21 852 25.16 10.8 51.5 72 6 42.8
06:45 1023 30.21 852 25.16 11 51.8 71 6 42.8
06:50 1023 30.21 852 25.16 11.2 52.1 70 6 42.8
06:55 1023 30.21 852 25.16 11.4 52.5 69 6 42.8
07:00 1023 30.21 852 25.16 11.6 52.9 68 6 42.8
07:05 1023 30.21 852 25.16 11.9 53.4 68 6.1 43
07:10 1023 30.21 852 25.16 12.1 53.8 67 6.2 43.2
07:15 1023 30.21 852 25.16 12.3 54.1 67 6.3 43.3
07:20 1023 30.21 852 25.16 12.5 54.6 65 6.2 43.1
07:25 1023 30.21 852 25.16 12.7 54.9 65 6.3 43.4
07:30 1023 30.21 852 25.16 12.9 55.2 64 6.2 43.2
07:35 1023 30.21 852 25.16 13 55.4 65 6.7 44
07:40 1023 30.21 852 25.16 12.9 55.2 65 6.5 43.6
07:45 1023 30.21 852 25.16 13.4 56 63 6.5 43.7
07:50 1023 30.21 852 25.16 13.7 56.7 63 6.9 44.4
07:55 1023 30.21 852 25.16 13.5 56.3 65 7.2 44.9
08:00 1023 30.21 852 25.16 13.5 56.3 64 6.9 44.5
08:05 1023 30.21 852 25.16 13.5 56.3 64 6.9 44.4
08:10 1023 30.21 852 25.16 13.8 56.9 63 7 44.5
08:15 1023 30.21 852 25.16 14.5 58.1 60 7 44.6
08:20 1023 30.21 852 25.16 15 59 61 7.5 45.5
08:25 1023 30.21 852 25.16 15.2 59.4 59 7.4 45.3
08:30 1023 30.21 852 25.16 15.4 59.7 60 7.9 46.2
08:35 1023 30.21 852 25.16 15.6 60 60 7.8 46.1
08:40 1023 30.21 852 25.16 16.1 60.9 56 7.3 45.1
08:45 1023 30.21 852 25.16 16.2 61.1 54 6.9 44.5
08:50 1023 30.21 852 25.16 16.4 61.5 54 7.2 44.9
08:55 1023 30.21 852 25.16 16.8 62.2 51 6.8 44.2
09:00 1023 30.21 852 25.16 17.4 63.3 50 6.9 44.5
09:05 1023 30.21 852 25.16 18.1 64.6 50 7.7 45.8
09:10 1023 30.21 852 25.16 18.6 65.4 46 7 44.6
09:15 1023 30.21 852 25.16 18.9 66 47 7.5 45.5
09:20 1023 30.21 852 25.16 19.3 66.8 45 7.3 45.2
09:25 1023 30.21 852 25.16 19.5 67.2 46 7.6 45.7
09:30 1023 30.21 852 25.16 19.8 67.6 44 7.3 45.1
09:35 1023 30.21 852 25.16 20.3 68.5 44 7.6 45.7
09:40 1023 30.21 852 25.16 20.2 68.4 43 7.5 45.5
09:45 1023 30.21 852 25.16 20 68.1 46 8.4 47
09:50 1023 30.21 852 25.16 19.7 67.5 46 7.9 46.3
09:55 1023 30.21 852 25.16 20.8 69.4 40 6.9 44.5
10:00 1023 30.21 852 25.16 20.8 69.4 45 8.5 47.4
10:05 1023 30.21 852 25.16 20.7 69.2 42 7.5 45.5
10:10 1023 30.21 852 25.16 21.5 70.7 40 7.5 45.5
10:15 1023 30.21 852 25.16 22.1 71.8 38 7.3 45.2
10:20 1023 30.21 852 25.16 22.3 72.1 41 8.5 47.3
10:25 1023 30.21 852 25.16 21.4 70.5 43 8.5 47.2
10:30 1023 30.21 852 25.16 21.1 69.9 40 7.2 45
10:35 1023 30.21 852 25.16 21.6 70.8 40 7.6 45.7
10:40 1023 30.21 852 25.16 22.5 72.5 37 7.2 45
10:45 1023 30.21 852 25.16 22.4 72.3 38 7.6 45.7
10:50 1023 30.21 852 25.16 22.8 73 37 7.5 45.4
10:55 1023 30.21 852 25.16 23.1 73.5 37 7.8 46.1
11:00 1023 30.21 852 25.16 22.7 72.9 39 8.1 46.6
11:05 1023 30.21 852 25.16 21.7 71.1 39 7.2 45
11:10 1023 30.21 852 25.16 22.7 72.8 36 6.9 44.5
11:15 1023 30.21 852 25.16 23.8 74.9 34 7.1 44.8
11:20 1023 30.21 852 25.16 24.6 76.3 33 7.7 45.8
11:25 1023 30.21 852 25.16 24.3 75.8 35 8.2 46.7
11:30 1023 30.21 852 25.16 24.6 76.2 33 7.3 45.2
11:35 1023 30.21 852 25.16 24.8 76.6 34 8.2 46.7
11:40 1023 30.21 852 25.16 24.1 75.3 36 8.1 46.6
11:45 1023 30.21 852 25.16 24.8 76.6 34 8.1 46.5
11:50 1023 30.21 852 25.16 24.2 75.6 35 8.2 46.7
11:55 1023 30.21 852 25.16 24.6 76.3 35 8.2 46.8
12:00 1023 30.21 852 25.16 24.7 76.4 34 8.2 46.7
12:05 1023 30.21 852 25.16 24.7 76.5 35 8.4 47.1
12:10 1023 30.21 852 25.16 25.5 77.8 32 7.9 46.3
12:15 1023 30.21 852 25.16 26.4 79.5 31 8 46.4
12:20 1023 30.21 852 25.16 27 80.6 30 8.5 47.3
12:25 1023 30.21 852 25.16 26.5 79.7 32 8.7 47.6
12:30 1023 30.21 852 25.16 26.2 79.2 31 8 46.4
12:35 1022 30.18 852 25.16 26.1 78.9 31 7.7 45.9
12:40 1022 30.18 852 25.16 26.5 79.7 28 6.6 43.9
12:45 1022 30.18 852 25.16 26.3 79.3 28 6.7 44.1
12:50 1022 30.18 852 25.16 25.8 78.5 29 6.6 43.8
12:55 1022 30.18 852 25.16 25.9 78.6 29 6.9 44.4
13:00 1022 30.18 852 25.16 25.7 78.2 30 6.9 44.4
13:05 1022 30.18 852 25.16 26.6 80 28 6.9 44.4
13:10 1022 30.18 851 25.13 27 80.5 28 7.3 45.1
13:15 1022 30.18 851 25.13 27.2 80.9 29 7.7 45.8
13:20 1022 30.18 851 25.13 26.5 79.7 29 7.2 45
13:25 1022 30.18 851 25.13 27 80.6 26 6.2 43.2
13:30 1022 30.18 851 25.13 27.1 80.7 25 5.7 42.3
13:35 1022 30.18 851 25.13 28.2 82.7 26 7 44.7
13:40 1022 30.18 851 25.13 28 82.4 26 7.1 44.8
13:45 1022 30.18 851 25.13 27.6 81.7 25 6.2 43.2
13:50 1022 30.18 851 25.13 27.4 81.3 25 5.9 42.7
13:55 1022 30.18 851 25.13 27.6 81.7 25 6.3 43.3
14:00 1022 30.18 851 25.13 27.8 82 24 5.9 42.7
14:05 1022 30.18 851 25.13 27.7 81.9 25 6.3 43.3
14:10 1022 30.18 851 25.13 27.6 81.6 24 5.5 41.9
14:15 1022 30.18 851 25.13 27.1 80.7 25 5.5 42
14:20 1022 30.18 851 25.13 27.5 81.5 25 6.2 43.2
14:25 1022 30.18 851 25.13 28.2 82.7 23 5.5 41.8
14:30 1022 30.18 851 25.13 28.7 83.7 22 5.4 41.8
14:35 1022 30.18 851 25.13 28.4 83.1 23 5.9 42.6
14:40 1022 30.18 851 25.13 28.5 83.4 23 5.7 42.2
14:45 1021 30.15 851 25.13 28.7 83.7 23 6 42.9
14:50 1021 30.15 851 25.13 28.7 83.7 21 4.8 40.6
14:55 1021 30.15 851 25.13 28.7 83.6 22 5.5 41.8
15:00 1021 30.15 851 25.13 28.6 83.4 23 5.4 41.8
15:05 1021 30.15 851 25.13 28.2 82.8 23 5.6 42
15:10 1021 30.15 851 25.13 28.5 83.3 23 5.6 42.2
15:15 1021 30.15 851 25.13 29.1 84.3 22 5.2 41.4
15:20 1021 30.15 850 25.1 28.4 83.2 23 5.5 41.8
15:25 1021 30.15 850 25.1 27.8 82.1 23 5.1 41.1
15:30 1021 30.15 850 25.1 28.3 83 23 5.6 42
15:35 1021 30.15 850 25.1 28.5 83.3 22 4.7 40.5
15:40 1021 30.15 850 25.1 29 84.3 21 4.7 40.5
15:45 1021 30.15 850 25.1 29.3 84.8 21 5.2 41.4
15:50 1021 30.15 850 25.1 29.7 85.5 21 5.2 41.4
15:55 1021 30.15 850 25.1 29.7 85.4 21 5.2 41.4
16:00 1021 30.15 850 25.1 29.9 85.8 21 5.3 41.6
16:05 1021 30.15 850 25.1 29.7 85.4 20 4.8 40.7
16:10 1021 30.15 850 25.1 29.4 84.8 21 5 41.1
16:15 1021 30.15 850 25.1 29.3 84.7 21 5.1 41.1
16:20 1021 30.15 850 25.1 29.4 85 21 5.1 41.1
16:25 1021 30.15 850 25.1 29.4 85 21 5.1 41.2
16:30 1021 30.15 850 25.1 29.6 85.2 20 4.6 40.3
16:35 1021 30.15 850 25.1 29.2 84.6 22 5.4 41.6
16:40 1021 30.15 850 25.1 29.1 84.5 21 4.8 40.7
16:45 1021 30.15 850 25.1 28.9 84.1 21 4.5 40.1
16:50 1021 30.15 850 25.1 28.9 84 21 4.6 40.2
16:55 1021 30.15 850 25.1 28.8 83.8 22 5.2 41.3
17:00 1020 30.12 850 25.1 29.4 84.9 20 4.7 40.5
17:05 1020 30.12 850 25.1 29.6 85.3 20 4.9 40.8
17:10 1020 30.12 850 25.1 29.4 85 20 4.8 40.6
17:15 1020 30.12 850 25.1 29.7 85.4 20 4.9 40.8
17:20 1020 30.12 850 25.1 29.9 85.8 20 4.8 40.6
17:25 1020 30.12 849 25.07 29.7 85.5 20 4.6 40.3
17:30 1020 30.12 849 25.07 29.4 84.9 20 4.7 40.5
17:35 1020 30.12 849 25.07 29.4 84.9 20 4.4 40
17:40 1020 30.12 849 25.07 29.6 85.4 21 5.1 41.1
17:45 1020 30.12 849 25.07 29.5 85 21 5.2 41.3
17:50 1020 30.12 849 25.07 29.5 85.2 20 4.9 40.8
17:55 1020 30.12 849 25.07 29.4 84.9 21 5 41.1
18:00 1020 30.12 849 25.07 29 84.3 21 4.7 40.4
18:05 1020 30.12 849 25.07 28.8 83.8 21 4.6 40.3
18:10 1020 30.12 849 25.07 28.7 83.6 22 5 41
18:15 1020 30.12 849 25.07 28.9 84 22 5.1 41.2
18:20 1020 30.12 849 25.07 29 84.2 20 4 39.1
18:25 1020 30.12 849 25.07 28.8 83.8 21 4.6 40.4
18:30 1020 30.12 849 25.07 28.9 83.9 21 4.4 40
18:35 1020 30.12 849 25.07 29 84.3 21 4.6 40.4
18:40 1020 30.12 849 25.07 29.1 84.3 21 4.9 40.9
18:45 1020 30.12 849 25.07 29 84.2 20 4 39.1
18:50 1020 30.12 849 25.07 28.8 83.8 21 4.6 40.2
18:55 1020 30.12 849 25.07 28.6 83.5 21 4.6 40.3
19:00 1020 30.12 849 25.07 28.6 83.6 21 4.2 39.5
19:05 1020 30.12 849 25.07 28.5 83.3 22 4.8 40.6
19:10 1020 30.12 849 25.07 28.3 82.9 25 6.7 44.1
19:15 1020 30.12 849 25.07 27.9 82.3 24 6 42.8
19:20 1020 30.12 849 25.07 27.5 81.6 24 5.4 41.7
19:25 1019 30.09 849 25.07 27 80.7 34 10 50
19:30 1019 30.09 849 25.07 26.4 79.5 35 9.8 49.6
19:35 1019 30.09 849 25.07 26.2 79.2 32 8.4 47.1
19:40 1019 30.09 849 25.07 25.7 78.3 35 9.4 48.9
19:45 1019 30.09 849 25.07 25.4 77.8 34 8.5 47.4
19:50 1019 30.09 849 25.07 25.5 77.9 32 7.9 46.1
19:55 1019 30.09 849 25.07 25.4 77.8 31 7.4 45.3
20:00 1019 30.09 849 25.07 25.4 77.6 34 8.4 47.2
20:05 1019 30.09 849 25.07 25.2 77.4 32 7.7 45.9
20:10 1019 30.09 849 25.07 24.9 76.8 35 8.5 47.2
20:15 1019 30.09 849 25.07 24.6 76.2 37 9 48.1
20:20 1019 30.09 849 25.07 24.6 76.3 40 10.2 50.4
20:25 1019 30.09 849 25.07 24 75.2 43 10.7 51.3
20:30 1019 30.09 849 25.07 23.5 74.2 42 9.9 49.8
20:35 1019 30.09 848 25.04 23.5 74.2 40 9.2 48.5
20:40 1019 30.09 848 25.04 23.3 74 40 9.2 48.5
20:45 1019 30.09 848 25.04 23 73.4 41 9.2 48.6
20:50 1019 30.09 848 25.04 22.8 73 41 8.9 48
20:55 1019 30.09 848 25.04 22.6 72.7 41 8.9 48
21:00 1019 30.09 848 25.04 22.4 72.4 41 8.8 47.8
21:05 1019 30.09 848 25.04 22.2 72 43 9.4 48.9
21:10 1019 30.09 848 25.04 22.1 71.8 45 9.8 49.6
21:15 1019 30.09 848 25.04 21.8 71.3 43 8.7 47.6
21:20 1019 30.09 848 25.04 21.7 71.1 44 9 48.3
21:25 1019 30.09 848 25.04 21.4 70.6 43 8.6 47.5
21:30 1019 30.09 848 25.04 21.3 70.4 45 9 48.1
21:35 1019 30.09 848 25.04 21.2 70.1 46 9.2 48.5
21:40 1019 30.09 848 25.04 21 69.8 45 8.7 47.7
21:45 1019 30.09 848 25.04 20.8 69.4 45 8.5 47.4
21:50 1019 30.09 848 25.04 20.7 69.3 45 8.6 47.4
21:55 1019 30.09 848 25.04 20.7 69.2 45 8.4 47.1
22:00 1019 30.09 848 25.04 20.7 69.3 46 8.9 48.1
22:05 1019 30.09 848 25.04 20.4 68.7 47 8.9 48
22:10 1019 30.09 848 25.04 19.8 67.6 49 8.7 47.7
22:15 1019 30.09 848 25.04 19.6 67.3 47 8.2 46.8
22:20 1019 30.09 848 25.04 19.8 67.6 45 7.5 45.5
22:25 1019 30.09 848 25.04 20.1 68.1 44 7.5 45.6
22:30 1019 30.09 848 25.04 19.9 67.7 45 7.8 46.1
22:35 1019 30.09 848 25.04 19.5 67.1 46 7.8 46.1
22:40 1019 30.09 848 25.04 19.3 66.8 47 7.8 46.1
22:45 1019 30.09 848 25.04 19.3 66.7 46 7.6 45.7
22:50 1019 30.09 848 25.04 19.1 66.4 48 8 46.4
22:55 1019 30.09 848 25.04 18.8 65.8 49 7.9 46.3
23:00 1019 30.09 848 25.04 18.8 65.8 49 7.9 46.3
23:05 1019 30.09 848 25.04 18.6 65.5 49 7.7 45.9
23:10 1019 30.09 848 25.04 18.8 65.9 48 7.7 45.8
23:15 1019 30.09 848 25.04 18.9 65.9 48 7.6 45.7
23:20 1019 30.09 848 25.04 18.9 66 48 7.7 45.8
23:25 1019 30.09 848 25.04 18.8 65.8 47 7.5 45.5
23:30 1019 30.09 848 25.04 18.7 65.6 48 7.6 45.8
23:35 1019 30.09 848 25.04 18.8 65.8 47 7.3 45.1
23:40 1019 30.09 848 25.04 18.7 65.7 47 7.2 45
23:45 1019 30.09 848 25.04 18.9 65.9 45 6.9 44.5
23:50 1019 30.09 848 25.04 19 66.2 45 7 44.7
23:55 1019 30.09 848 25.04 19 66.1 45 7 44.6
24:00 1019 30.09 848 25.04 18.8 65.9 46 7 44.6